sensor_id;sensor_type;location;lat;lon;timestamp;P1;durP1;ratioP1;P2;durP2;ratioP2
7076;SDS011;3579;48.956;9.154;2024-03-25T00:01:21;1.30;;;1.00;;
7076;SDS011;3579;48.956;9.154;2024-03-25T00:03:47;0.90;;;0.90;;
7076;SDS011;3579;48.956;9.154;2024-03-25T00:06:13;1.03;;;0.90;;
7076;SDS011;3579;48.956;9.154;2024-03-25T00:08:39;1.03;;;0.90;;
7076;SDS011;3579;48.956;9.154;2024-03-25T00:11:05;1.20;;;1.00;;
7076;SDS011;3579;48.956;9.154;2024-03-25T00:13:31;1.00;;;0.80;;
7076;SDS011;3579;48.956;9.154;2024-03-25T00:15:57;1.23;;;0.90;;
7076;SDS011;3579;48.956;9.154;2024-03-25T00:18:23;1.33;;;1.00;;
7076;SDS011;3579;48.956;9.154;2024-03-25T00:20:49;0.90;;;0.90;;
7076;SDS011;3579;48.956;9.154;2024-03-25T00:23:16;0.93;;;0.80;;
7076;SDS011;3579;48.956;9.154;2024-03-25T00:25:43;1.47;;;0.90;;
7076;SDS011;3579;48.956;9.154;2024-03-25T00:28:09;1.00;;;0.90;;
7076;SDS011;3579;48.956;9.154;2024-03-25T00:30:35;0.87;;;0.80;;
7076;SDS011;3579;48.956;9.154;2024-03-25T00:33:01;0.90;;;0.90;;
7076;SDS011;3579;48.956;9.154;2024-03-25T00:35:27;1.10;;;0.80;;
7076;SDS011;3579;48.956;9.154;2024-03-25T00:37:53;1.00;;;0.87;;
7076;SDS011;3579;48.956;9.154;2024-03-25T00:40:19;0.80;;;0.80;;
7076;SDS011;3579;48.956;9.154;2024-03-25T00:42:45;0.80;;;0.80;;
7076;SDS011;3579;48.956;9.154;2024-03-25T00:45:12;1.00;;;0.90;;
7076;SDS011;3579;48.956;9.154;2024-03-25T00:47:38;0.70;;;0.70;;
7076;SDS011;3579;48.956;9.154;2024-03-25T00:50:05;0.97;;;0.90;;
7076;SDS011;3579;48.956;9.154;2024-03-25T00:52:32;0.80;;;0.80;;
7076;SDS011;3579;48.956;9.154;2024-03-25T00:54:58;0.80;;;0.80;;
7076;SDS011;3579;48.956;9.154;2024-03-25T00:57:24;0.90;;;0.90;;
7076;SDS011;3579;48.956;9.154;2024-03-25T00:59:50;1.23;;;0.97;;
7076;SDS011;3579;48.956;9.154;2024-03-25T01:02:25;0.83;;;0.83;;
7076;SDS011;3579;48.956;9.154;2024-03-25T01:04:53;1.07;;;0.93;;
7076;SDS011;3579;48.956;9.154;2024-03-25T01:07:20;1.00;;;0.90;;
7076;SDS011;3579;48.956;9.154;2024-03-25T01:09:46;0.90;;;0.90;;
7076;SDS011;3579;48.956;9.154;2024-03-25T01:12:12;0.87;;;0.80;;
7076;SDS011;3579;48.956;9.154;2024-03-25T01:14:38;0.83;;;0.83;;
7076;SDS011;3579;48.956;9.154;2024-03-25T01:17:04;1.13;;;0.90;;
7076;SDS011;3579;48.956;9.154;2024-03-25T01:19:30;1.37;;;0.90;;
7076;SDS011;3579;48.956;9.154;2024-03-25T01:21:56;1.03;;;0.90;;
7076;SDS011;3579;48.956;9.154;2024-03-25T01:24:22;1.13;;;0.93;;
7076;SDS011;3579;48.956;9.154;2024-03-25T01:26:48;1.10;;;1.00;;
7076;SDS011;3579;48.956;9.154;2024-03-25T01:29:14;1.00;;;0.90;;
7076;SDS011;3579;48.956;9.154;2024-03-25T01:31:40;1.00;;;0.90;;
7076;SDS011;3579;48.956;9.154;2024-03-25T01:34:06;1.07;;;0.97;;
7076;SDS011;3579;48.956;9.154;2024-03-25T01:36:32;1.30;;;1.10;;
7076;SDS011;3579;48.956;9.154;2024-03-25T01:38:59;0.80;;;0.80;;
7076;SDS011;3579;48.956;9.154;2024-03-25T01:41:26;0.90;;;0.90;;
7076;SDS011;3579;48.956;9.154;2024-03-25T01:43:52;0.90;;;0.90;;
7076;SDS011;3579;48.956;9.154;2024-03-25T01:46:18;1.43;;;0.90;;
7076;SDS011;3579;48.956;9.154;2024-03-25T01:48:45;0.90;;;0.90;;
7076;SDS011;3579;48.956;9.154;2024-03-25T01:51:11;0.97;;;0.90;;
7076;SDS011;3579;48.956;9.154;2024-03-25T01:53:40;0.93;;;0.87;;
7076;SDS011;3579;48.956;9.154;2024-03-25T01:56:06;2.27;;;1.13;;
7076;SDS011;3579;48.956;9.154;2024-03-25T01:58:33;1.03;;;0.90;;
7076;SDS011;3579;48.956;9.154;2024-03-25T02:00:59;0.70;;;0.70;;
7076;SDS011;3579;48.956;9.154;2024-03-25T02:03:29;0.97;;;0.90;;
7076;SDS011;3579;48.956;9.154;2024-03-25T02:05:57;0.97;;;0.90;;
7076;SDS011;3579;48.956;9.154;2024-03-25T02:08:26;0.87;;;0.80;;
7076;SDS011;3579;48.956;9.154;2024-03-25T02:10:54;0.80;;;0.80;;
7076;SDS011;3579;48.956;9.154;2024-03-25T02:13:21;1.20;;;0.90;;
7076;SDS011;3579;48.956;9.154;2024-03-25T02:15:48;0.97;;;0.80;;
7076;SDS011;3579;48.956;9.154;2024-03-25T02:18:17;0.83;;;0.83;;
7076;SDS011;3579;48.956;9.154;2024-03-25T02:20:43;0.73;;;0.73;;
7076;SDS011;3579;48.956;9.154;2024-03-25T02:23:11;1.00;;;0.90;;
7076;SDS011;3579;48.956;9.154;2024-03-25T02:25:38;1.00;;;0.90;;
7076;SDS011;3579;48.956;9.154;2024-03-25T02:28:06;1.17;;;0.93;;
7076;SDS011;3579;48.956;9.154;2024-03-25T02:30:32;0.90;;;0.90;;
7076;SDS011;3579;48.956;9.154;2024-03-25T02:32:58;0.80;;;0.77;;
7076;SDS011;3579;48.956;9.154;2024-03-25T02:35:24;0.90;;;0.80;;
7076;SDS011;3579;48.956;9.154;2024-03-25T02:37:51;1.07;;;0.93;;
7076;SDS011;3579;48.956;9.154;2024-03-25T02:40:18;1.00;;;0.90;;
7076;SDS011;3579;48.956;9.154;2024-03-25T02:42:46;0.77;;;0.77;;
7076;SDS011;3579;48.956;9.154;2024-03-25T02:45:12;0.90;;;0.90;;
7076;SDS011;3579;48.956;9.154;2024-03-25T02:47:38;0.80;;;0.80;;
7076;SDS011;3579;48.956;9.154;2024-03-25T02:50:04;0.80;;;0.80;;
7076;SDS011;3579;48.956;9.154;2024-03-25T02:52:31;1.10;;;1.00;;
7076;SDS011;3579;48.956;9.154;2024-03-25T02:54:57;0.70;;;0.70;;
7076;SDS011;3579;48.956;9.154;2024-03-25T02:57:23;1.10;;;1.00;;
7076;SDS011;3579;48.956;9.154;2024-03-25T02:59:49;1.10;;;1.00;;
7076;SDS011;3579;48.956;9.154;2024-03-25T03:02:15;0.90;;;0.90;;
7076;SDS011;3579;48.956;9.154;2024-03-25T03:04:41;0.97;;;0.90;;
7076;SDS011;3579;48.956;9.154;2024-03-25T03:07:07;0.93;;;0.87;;
7076;SDS011;3579;48.956;9.154;2024-03-25T03:09:33;0.83;;;0.83;;
7076;SDS011;3579;48.956;9.154;2024-03-25T03:11:59;1.07;;;0.90;;
7076;SDS011;3579;48.956;9.154;2024-03-25T03:14:25;0.73;;;0.73;;
7076;SDS011;3579;48.956;9.154;2024-03-25T03:16:51;0.80;;;0.80;;
7076;SDS011;3579;48.956;9.154;2024-03-25T03:19:26;1.10;;;1.00;;
7076;SDS011;3579;48.956;9.154;2024-03-25T03:21:52;1.43;;;1.00;;
7076;SDS011;3579;48.956;9.154;2024-03-25T03:24:19;0.90;;;0.80;;
7076;SDS011;3579;48.956;9.154;2024-03-25T03:26:45;0.80;;;0.80;;
7076;SDS011;3579;48.956;9.154;2024-03-25T03:29:11;0.80;;;0.80;;
7076;SDS011;3579;48.956;9.154;2024-03-25T03:31:37;1.10;;;0.90;;
7076;SDS011;3579;48.956;9.154;2024-03-25T03:34:03;0.93;;;0.90;;
7076;SDS011;3579;48.956;9.154;2024-03-25T03:36:29;0.83;;;0.80;;
7076;SDS011;3579;48.956;9.154;2024-03-25T03:38:55;0.83;;;0.83;;
7076;SDS011;3579;48.956;9.154;2024-03-25T03:41:21;1.00;;;0.87;;
7076;SDS011;3579;48.956;9.154;2024-03-25T03:43:47;1.10;;;0.90;;
7076;SDS011;3579;48.956;9.154;2024-03-25T03:46:14;0.80;;;0.80;;
7076;SDS011;3579;48.956;9.154;2024-03-25T03:48:42;0.90;;;0.90;;
7076;SDS011;3579;48.956;9.154;2024-03-25T03:51:08;1.10;;;1.00;;
7076;SDS011;3579;48.956;9.154;2024-03-25T03:53:34;1.40;;;1.00;;
7076;SDS011;3579;48.956;9.154;2024-03-25T03:56:02;0.90;;;0.90;;
7076;SDS011;3579;48.956;9.154;2024-03-25T03:58:32;0.93;;;0.93;;
7076;SDS011;3579;48.956;9.154;2024-03-25T04:00:58;0.80;;;0.80;;
7076;SDS011;3579;48.956;9.154;2024-03-25T04:03:25;1.07;;;0.90;;
7076;SDS011;3579;48.956;9.154;2024-03-25T04:05:52;1.00;;;0.90;;
7076;SDS011;3579;48.956;9.154;2024-03-25T04:08:18;0.87;;;0.87;;
7076;SDS011;3579;48.956;9.154;2024-03-25T04:10:44;0.80;;;0.80;;
7076;SDS011;3579;48.956;9.154;2024-03-25T04:13:11;1.20;;;0.90;;
7076;SDS011;3579;48.956;9.154;2024-03-25T04:15:38;1.20;;;1.03;;
7076;SDS011;3579;48.956;9.154;2024-03-25T04:18:06;1.10;;;1.00;;
7076;SDS011;3579;48.956;9.154;2024-03-25T04:20:41;1.00;;;0.90;;
7076;SDS011;3579;48.956;9.154;2024-03-25T04:23:07;1.47;;;1.00;;
7076;SDS011;3579;48.956;9.154;2024-03-25T04:25:34;0.93;;;0.90;;
7076;SDS011;3579;48.956;9.154;2024-03-25T04:28:03;1.00;;;0.90;;
7076;SDS011;3579;48.956;9.154;2024-03-25T04:30:30;0.97;;;0.80;;
7076;SDS011;3579;48.956;9.154;2024-03-25T04:32:56;1.00;;;0.90;;
7076;SDS011;3579;48.956;9.154;2024-03-25T04:35:22;0.80;;;0.80;;
7076;SDS011;3579;48.956;9.154;2024-03-25T04:37:48;0.90;;;0.90;;
7076;SDS011;3579;48.956;9.154;2024-03-25T04:40:14;1.00;;;0.90;;
7076;SDS011;3579;48.956;9.154;2024-03-25T04:42:41;0.80;;;0.80;;
7076;SDS011;3579;48.956;9.154;2024-03-25T04:45:07;0.93;;;0.90;;
7076;SDS011;3579;48.956;9.154;2024-03-25T04:47:33;1.17;;;1.00;;
7076;SDS011;3579;48.956;9.154;2024-03-25T04:49:59;1.00;;;0.90;;
7076;SDS011;3579;48.956;9.154;2024-03-25T04:52:25;0.90;;;0.90;;
7076;SDS011;3579;48.956;9.154;2024-03-25T04:54:51;1.83;;;1.30;;
7076;SDS011;3579;48.956;9.154;2024-03-25T04:57:17;0.90;;;0.90;;
7076;SDS011;3579;48.956;9.154;2024-03-25T04:59:44;1.20;;;0.93;;
7076;SDS011;3579;48.956;9.154;2024-03-25T05:02:10;0.90;;;0.90;;
7076;SDS011;3579;48.956;9.154;2024-03-25T05:04:36;1.10;;;1.00;;
7076;SDS011;3579;48.956;9.154;2024-03-25T05:07:02;1.10;;;1.00;;
7076;SDS011;3579;48.956;9.154;2024-03-25T05:09:28;1.07;;;0.97;;
7076;SDS011;3579;48.956;9.154;2024-03-25T05:11:54;1.47;;;1.10;;
7076;SDS011;3579;48.956;9.154;2024-03-25T05:14:20;1.10;;;1.00;;
7076;SDS011;3579;48.956;9.154;2024-03-25T05:16:46;1.30;;;1.20;;
7076;SDS011;3579;48.956;9.154;2024-03-25T05:19:12;0.90;;;0.90;;
7076;SDS011;3579;48.956;9.154;2024-03-25T05:21:38;1.10;;;1.00;;
7076;SDS011;3579;48.956;9.154;2024-03-25T05:24:04;1.57;;;1.10;;
7076;SDS011;3579;48.956;9.154;2024-03-25T05:26:30;1.10;;;1.00;;
7076;SDS011;3579;48.956;9.154;2024-03-25T05:28:57;1.30;;;1.10;;
7076;SDS011;3579;48.956;9.154;2024-03-25T05:31:23;1.70;;;1.20;;
7076;SDS011;3579;48.956;9.154;2024-03-25T05:33:50;1.40;;;1.10;;
7076;SDS011;3579;48.956;9.154;2024-03-25T05:36:16;1.03;;;0.93;;
7076;SDS011;3579;48.956;9.154;2024-03-25T05:38:42;1.87;;;1.20;;
7076;SDS011;3579;48.956;9.154;2024-03-25T05:41:09;1.23;;;1.10;;
7076;SDS011;3579;48.956;9.154;2024-03-25T05:43:35;1.90;;;1.13;;
7076;SDS011;3579;48.956;9.154;2024-03-25T05:46:01;1.20;;;1.00;;
7076;SDS011;3579;48.956;9.154;2024-03-25T05:48:28;1.50;;;1.37;;
7076;SDS011;3579;48.956;9.154;2024-03-25T05:51:03;1.63;;;1.13;;
7076;SDS011;3579;48.956;9.154;2024-03-25T05:53:30;1.60;;;1.33;;
7076;SDS011;3579;48.956;9.154;2024-03-25T05:55:57;1.30;;;1.20;;
7076;SDS011;3579;48.956;9.154;2024-03-25T05:58:26;1.67;;;1.20;;
7076;SDS011;3579;48.956;9.154;2024-03-25T06:00:53;1.30;;;1.10;;
7076;SDS011;3579;48.956;9.154;2024-03-25T06:03:20;1.73;;;1.17;;
7076;SDS011;3579;48.956;9.154;2024-03-25T06:05:47;1.70;;;1.33;;
7076;SDS011;3579;48.956;9.154;2024-03-25T06:08:13;2.13;;;1.20;;
7076;SDS011;3579;48.956;9.154;2024-03-25T06:10:52;1.47;;;1.30;;
7076;SDS011;3579;48.956;9.154;2024-03-25T06:13:18;1.50;;;1.27;;
7076;SDS011;3579;48.956;9.154;2024-03-25T06:15:45;2.00;;;1.30;;
7076;SDS011;3579;48.956;9.154;2024-03-25T06:18:11;1.93;;;1.43;;
7076;SDS011;3579;48.956;9.154;2024-03-25T06:20:37;3.90;;;1.50;;
7076;SDS011;3579;48.956;9.154;2024-03-25T06:23:04;1.97;;;1.40;;
7076;SDS011;3579;48.956;9.154;2024-03-25T06:25:30;1.47;;;1.30;;
7076;SDS011;3579;48.956;9.154;2024-03-25T06:27:56;1.77;;;1.27;;
7076;SDS011;3579;48.956;9.154;2024-03-25T06:30:22;3.40;;;1.67;;
7076;SDS011;3579;48.956;9.154;2024-03-25T06:33:07;2.30;;;1.50;;
7076;SDS011;3579;48.956;9.154;2024-03-25T06:35:51;1.60;;;1.20;;
7076;SDS011;3579;48.956;9.154;2024-03-25T06:38:18;1.87;;;1.33;;
7076;SDS011;3579;48.956;9.154;2024-03-25T06:40:45;1.97;;;1.30;;
7076;SDS011;3579;48.956;9.154;2024-03-25T06:43:11;2.93;;;1.47;;
7076;SDS011;3579;48.956;9.154;2024-03-25T06:45:37;2.43;;;1.40;;
7076;SDS011;3579;48.956;9.154;2024-03-25T06:48:03;2.60;;;1.60;;
7076;SDS011;3579;48.956;9.154;2024-03-25T06:50:30;3.20;;;1.60;;
7076;SDS011;3579;48.956;9.154;2024-03-25T06:52:56;2.17;;;1.47;;
7076;SDS011;3579;48.956;9.154;2024-03-25T06:55:22;2.00;;;1.50;;
7076;SDS011;3579;48.956;9.154;2024-03-25T06:57:52;2.57;;;1.60;;
7076;SDS011;3579;48.956;9.154;2024-03-25T07:00:19;3.10;;;1.53;;
7076;SDS011;3579;48.956;9.154;2024-03-25T07:02:48;2.43;;;1.70;;
7076;SDS011;3579;48.956;9.154;2024-03-25T07:05:14;1.97;;;1.67;;
7076;SDS011;3579;48.956;9.154;2024-03-25T07:07:41;3.97;;;1.83;;
7076;SDS011;3579;48.956;9.154;2024-03-25T07:10:07;3.73;;;1.90;;
7076;SDS011;3579;48.956;9.154;2024-03-25T07:12:33;4.70;;;1.67;;
7076;SDS011;3579;48.956;9.154;2024-03-25T07:14:59;3.63;;;2.00;;
7076;SDS011;3579;48.956;9.154;2024-03-25T07:17:26;3.63;;;2.10;;
7076;SDS011;3579;48.956;9.154;2024-03-25T07:19:52;3.47;;;1.90;;
7076;SDS011;3579;48.956;9.154;2024-03-25T07:22:18;4.30;;;2.00;;
7076;SDS011;3579;48.956;9.154;2024-03-25T07:24:44;5.40;;;2.10;;
7076;SDS011;3579;48.956;9.154;2024-03-25T07:27:10;4.03;;;2.03;;
7076;SDS011;3579;48.956;9.154;2024-03-25T07:29:37;4.53;;;2.33;;
7076;SDS011;3579;48.956;9.154;2024-03-25T07:32:03;3.13;;;1.87;;
7076;SDS011;3579;48.956;9.154;2024-03-25T07:34:29;5.23;;;1.90;;
7076;SDS011;3579;48.956;9.154;2024-03-25T07:36:56;4.03;;;1.97;;
7076;SDS011;3579;48.956;9.154;2024-03-25T07:39:22;2.97;;;1.80;;
7076;SDS011;3579;48.956;9.154;2024-03-25T07:41:52;4.83;;;2.00;;
7076;SDS011;3579;48.956;9.154;2024-03-25T07:44:19;3.03;;;1.97;;
7076;SDS011;3579;48.956;9.154;2024-03-25T07:46:45;5.13;;;2.20;;
7076;SDS011;3579;48.956;9.154;2024-03-25T07:49:11;4.73;;;2.07;;
7076;SDS011;3579;48.956;9.154;2024-03-25T07:51:37;3.33;;;1.97;;
7076;SDS011;3579;48.956;9.154;2024-03-25T07:54:05;5.27;;;2.23;;
7076;SDS011;3579;48.956;9.154;2024-03-25T07:56:31;2.57;;;1.97;;
7076;SDS011;3579;48.956;9.154;2024-03-25T07:59:02;9.57;;;2.00;;
7076;SDS011;3579;48.956;9.154;2024-03-25T08:01:29;4.03;;;2.00;;
7076;SDS011;3579;48.956;9.154;2024-03-25T08:03:55;3.57;;;1.83;;
7076;SDS011;3579;48.956;9.154;2024-03-25T08:06:21;3.30;;;2.10;;
7076;SDS011;3579;48.956;9.154;2024-03-25T08:08:47;6.47;;;2.20;;
7076;SDS011;3579;48.956;9.154;2024-03-25T08:11:14;4.37;;;2.23;;
7076;SDS011;3579;48.956;9.154;2024-03-25T08:13:40;4.70;;;1.90;;
7076;SDS011;3579;48.956;9.154;2024-03-25T08:16:06;4.47;;;1.97;;
7076;SDS011;3579;48.956;9.154;2024-03-25T08:18:32;8.47;;;2.17;;
7076;SDS011;3579;48.956;9.154;2024-03-25T08:20:58;6.13;;;1.90;;
7076;SDS011;3579;48.956;9.154;2024-03-25T08:23:24;6.17;;;2.20;;
7076;SDS011;3579;48.956;9.154;2024-03-25T08:25:50;6.23;;;1.80;;
7076;SDS011;3579;48.956;9.154;2024-03-25T08:28:17;5.07;;;1.90;;
7076;SDS011;3579;48.956;9.154;2024-03-25T08:30:43;3.27;;;1.63;;
7076;SDS011;3579;48.956;9.154;2024-03-25T08:33:09;4.47;;;1.85;;
7076;SDS011;3579;48.956;9.154;2024-03-25T08:35:35;4.00;;;2.10;;
7076;SDS011;3579;48.956;9.154;2024-03-25T08:38:01;4.47;;;2.00;;
7076;SDS011;3579;48.956;9.154;2024-03-25T08:40:27;5.13;;;1.83;;
7076;SDS011;3579;48.956;9.154;2024-03-25T08:42:53;7.03;;;1.93;;
7076;SDS011;3579;48.956;9.154;2024-03-25T08:45:19;5.77;;;1.97;;
7076;SDS011;3579;48.956;9.154;2024-03-25T08:47:45;3.97;;;2.10;;
7076;SDS011;3579;48.956;9.154;2024-03-25T08:50:11;8.50;;;1.92;;
7076;SDS011;3579;48.956;9.154;2024-03-25T08:52:37;3.07;;;1.63;;
7076;SDS011;3579;48.956;9.154;2024-03-25T08:55:05;4.60;;;2.00;;
7076;SDS011;3579;48.956;9.154;2024-03-25T08:57:32;3.53;;;1.60;;
7076;SDS011;3579;48.956;9.154;2024-03-25T08:59:58;5.93;;;2.07;;
7076;SDS011;3579;48.956;9.154;2024-03-25T09:02:24;4.07;;;1.70;;
7076;SDS011;3579;48.956;9.154;2024-03-25T09:04:50;4.43;;;1.60;;
7076;SDS011;3579;48.956;9.154;2024-03-25T09:07:16;6.83;;;1.90;;
7076;SDS011;3579;48.956;9.154;2024-03-25T09:09:42;3.63;;;1.60;;
7076;SDS011;3579;48.956;9.154;2024-03-25T09:12:28;3.77;;;1.63;;
7076;SDS011;3579;48.956;9.154;2024-03-25T09:14:54;4.13;;;1.70;;
7076;SDS011;3579;48.956;9.154;2024-03-25T09:17:20;8.73;;;2.23;;
7076;SDS011;3579;48.956;9.154;2024-03-25T09:19:48;4.20;;;1.70;;
7076;SDS011;3579;48.956;9.154;2024-03-25T09:22:14;3.37;;;1.53;;
7076;SDS011;3579;48.956;9.154;2024-03-25T09:24:40;7.47;;;1.93;;
7076;SDS011;3579;48.956;9.154;2024-03-25T09:27:06;6.73;;;1.90;;
7076;SDS011;3579;48.956;9.154;2024-03-25T09:29:32;6.80;;;2.00;;
7076;SDS011;3579;48.956;9.154;2024-03-25T09:31:58;3.90;;;1.60;;
7076;SDS011;3579;48.956;9.154;2024-03-25T09:34:24;4.60;;;1.70;;
7076;SDS011;3579;48.956;9.154;2024-03-25T09:36:50;4.17;;;1.77;;
7076;SDS011;3579;48.956;9.154;2024-03-25T09:39:17;4.80;;;1.70;;
7076;SDS011;3579;48.956;9.154;2024-03-25T09:41:43;4.67;;;1.80;;
7076;SDS011;3579;48.956;9.154;2024-03-25T09:44:10;3.57;;;1.80;;
7076;SDS011;3579;48.956;9.154;2024-03-25T09:46:36;7.27;;;1.90;;
7076;SDS011;3579;48.956;9.154;2024-03-25T09:49:02;3.90;;;1.60;;
7076;SDS011;3579;48.956;9.154;2024-03-25T09:51:31;4.53;;;2.00;;
7076;SDS011;3579;48.956;9.154;2024-03-25T09:53:57;3.67;;;1.57;;
7076;SDS011;3579;48.956;9.154;2024-03-25T09:56:23;4.93;;;1.80;;
7076;SDS011;3579;48.956;9.154;2024-03-25T09:58:49;6.37;;;1.60;;
7076;SDS011;3579;48.956;9.154;2024-03-25T10:01:16;5.53;;;1.80;;
7076;SDS011;3579;48.956;9.154;2024-03-25T10:03:42;2.63;;;1.50;;
7076;SDS011;3579;48.956;9.154;2024-03-25T10:06:09;5.13;;;1.67;;
7076;SDS011;3579;48.956;9.154;2024-03-25T10:08:35;7.70;;;2.00;;
7076;SDS011;3579;48.956;9.154;2024-03-25T10:11:02;5.30;;;1.93;;
7076;SDS011;3579;48.956;9.154;2024-03-25T10:13:29;3.17;;;1.67;;
7076;SDS011;3579;48.956;9.154;2024-03-25T10:15:55;3.10;;;1.63;;
7076;SDS011;3579;48.956;9.154;2024-03-25T10:18:21;5.07;;;1.80;;
7076;SDS011;3579;48.956;9.154;2024-03-25T10:20:48;6.73;;;1.67;;
7076;SDS011;3579;48.956;9.154;2024-03-25T10:23:15;4.57;;;1.63;;
7076;SDS011;3579;48.956;9.154;2024-03-25T10:25:47;5.57;;;1.77;;
7076;SDS011;3579;48.956;9.154;2024-03-25T10:28:13;3.53;;;1.70;;
7076;SDS011;3579;48.956;9.154;2024-03-25T10:30:40;3.30;;;1.83;;
7076;SDS011;3579;48.956;9.154;2024-03-25T10:33:07;3.97;;;1.63;;
7076;SDS011;3579;48.956;9.154;2024-03-25T10:35:34;2.83;;;1.50;;
7076;SDS011;3579;48.956;9.154;2024-03-25T10:38:05;3.00;;;1.40;;
7076;SDS011;3579;48.956;9.154;2024-03-25T10:40:34;3.77;;;1.63;;
7076;SDS011;3579;48.956;9.154;2024-03-25T10:45:29;5.45;;;1.70;;
7076;SDS011;3579;48.956;9.154;2024-03-25T10:48:02;4.60;;;1.50;;
7076;SDS011;3579;48.956;9.154;2024-03-25T10:50:34;8.73;;;1.97;;
7076;SDS011;3579;48.956;9.154;2024-03-25T10:53:02;5.67;;;1.70;;
7076;SDS011;3579;48.956;9.154;2024-03-25T10:55:30;6.77;;;1.60;;
7076;SDS011;3579;48.956;9.154;2024-03-25T10:57:56;5.05;;;1.73;;
7076;SDS011;3579;48.956;9.154;2024-03-25T11:00:23;5.97;;;1.80;;
7076;SDS011;3579;48.956;9.154;2024-03-25T11:02:49;5.20;;;1.90;;
7076;SDS011;3579;48.956;9.154;2024-03-25T11:05:16;7.00;;;1.70;;
7076;SDS011;3579;48.956;9.154;2024-03-25T11:07:43;4.33;;;1.80;;
7076;SDS011;3579;48.956;9.154;2024-03-25T11:10:09;8.30;;;1.80;;
7076;SDS011;3579;48.956;9.154;2024-03-25T11:12:36;3.93;;;1.70;;
7076;SDS011;3579;48.956;9.154;2024-03-25T11:15:03;4.93;;;1.80;;
7076;SDS011;3579;48.956;9.154;2024-03-25T11:17:30;4.43;;;1.60;;
7076;SDS011;3579;48.956;9.154;2024-03-25T11:20:10;3.93;;;1.50;;
7076;SDS011;3579;48.956;9.154;2024-03-25T11:22:47;3.80;;;1.50;;
7076;SDS011;3579;48.956;9.154;2024-03-25T11:25:14;4.73;;;1.70;;
7076;SDS011;3579;48.956;9.154;2024-03-25T11:27:42;4.37;;;1.60;;
7076;SDS011;3579;48.956;9.154;2024-03-25T11:30:10;2.60;;;1.50;;
7076;SDS011;3579;48.956;9.154;2024-03-25T11:32:43;5.63;;;1.70;;
7076;SDS011;3579;48.956;9.154;2024-03-25T11:35:17;4.33;;;1.80;;
7076;SDS011;3579;48.956;9.154;2024-03-25T11:37:43;3.10;;;1.80;;
7076;SDS011;3579;48.956;9.154;2024-03-25T11:40:09;4.07;;;1.33;;
7076;SDS011;3579;48.956;9.154;2024-03-25T11:42:41;4.03;;;1.53;;
7076;SDS011;3579;48.956;9.154;2024-03-25T11:45:13;3.37;;;1.70;;
7076;SDS011;3579;48.956;9.154;2024-03-25T11:47:44;3.23;;;1.50;;
7076;SDS011;3579;48.956;9.154;2024-03-25T11:50:14;2.22;;;1.58;;
7076;SDS011;3579;48.956;9.154;2024-03-25T11:52:41;6.07;;;1.67;;
7076;SDS011;3579;48.956;9.154;2024-03-25T11:55:08;3.80;;;1.60;;
7076;SDS011;3579;48.956;9.154;2024-03-25T11:57:38;5.93;;;1.80;;
7076;SDS011;3579;48.956;9.154;2024-03-25T12:00:04;2.77;;;1.70;;
7076;SDS011;3579;48.956;9.154;2024-03-25T12:02:31;5.97;;;1.37;;
7076;SDS011;3579;48.956;9.154;2024-03-25T12:04:58;5.10;;;1.43;;
7076;SDS011;3579;48.956;9.154;2024-03-25T12:07:24;4.67;;;1.80;;
7076;SDS011;3579;48.956;9.154;2024-03-25T12:09:50;3.37;;;1.50;;
7076;SDS011;3579;48.956;9.154;2024-03-25T12:12:55;3.00;;;1.50;;
7076;SDS011;3579;48.956;9.154;2024-03-25T12:15:21;2.13;;;1.50;;
7076;SDS011;3579;48.956;9.154;2024-03-25T12:17:48;2.73;;;1.40;;
7076;SDS011;3579;48.956;9.154;2024-03-25T12:20:14;2.30;;;1.50;;
7076;SDS011;3579;48.956;9.154;2024-03-25T12:22:40;5.37;;;1.77;;
7076;SDS011;3579;48.956;9.154;2024-03-25T12:25:06;4.60;;;1.50;;
7076;SDS011;3579;48.956;9.154;2024-03-25T12:27:33;4.53;;;1.60;;
7076;SDS011;3579;48.956;9.154;2024-03-25T12:30:05;5.30;;;1.70;;
7076;SDS011;3579;48.956;9.154;2024-03-25T12:34:59;3.47;;;1.60;;
7076;SDS011;3579;48.956;9.154;2024-03-25T12:37:28;4.03;;;1.50;;
7076;SDS011;3579;48.956;9.154;2024-03-25T12:39:54;5.38;;;1.60;;
7076;SDS011;3579;48.956;9.154;2024-03-25T12:42:23;5.65;;;1.80;;
7076;SDS011;3579;48.956;9.154;2024-03-25T12:44:53;4.43;;;1.90;;
7076;SDS011;3579;48.956;9.154;2024-03-25T12:47:19;2.20;;;1.60;;
7076;SDS011;3579;48.956;9.154;2024-03-25T12:49:46;3.37;;;1.70;;
7076;SDS011;3579;48.956;9.154;2024-03-25T12:52:11;3.97;;;1.70;;
7076;SDS011;3579;48.956;9.154;2024-03-25T12:54:38;2.97;;;1.67;;
7076;SDS011;3579;48.956;9.154;2024-03-25T12:57:05;3.13;;;1.70;;
7076;SDS011;3579;48.956;9.154;2024-03-25T12:59:31;3.03;;;2.20;;
7076;SDS011;3579;48.956;9.154;2024-03-25T13:01:57;2.83;;;1.50;;
7076;SDS011;3579;48.956;9.154;2024-03-25T13:04:23;3.43;;;1.60;;
7076;SDS011;3579;48.956;9.154;2024-03-25T13:06:49;3.27;;;1.53;;
7076;SDS011;3579;48.956;9.154;2024-03-25T13:09:15;5.23;;;1.93;;
7076;SDS011;3579;48.956;9.154;2024-03-25T13:11:41;3.17;;;1.80;;
7076;SDS011;3579;48.956;9.154;2024-03-25T13:14:10;3.00;;;1.50;;
7076;SDS011;3579;48.956;9.154;2024-03-25T13:16:37;2.93;;;1.47;;
7076;SDS011;3579;48.956;9.154;2024-03-25T13:19:04;3.70;;;1.77;;
7076;SDS011;3579;48.956;9.154;2024-03-25T13:21:30;4.20;;;1.50;;
7076;SDS011;3579;48.956;9.154;2024-03-25T13:23:56;2.60;;;1.60;;
7076;SDS011;3579;48.956;9.154;2024-03-25T13:26:22;4.17;;;1.50;;
7076;SDS011;3579;48.956;9.154;2024-03-25T13:28:48;4.40;;;1.93;;
7076;SDS011;3579;48.956;9.154;2024-03-25T13:31:14;2.67;;;1.70;;
7076;SDS011;3579;48.956;9.154;2024-03-25T13:33:41;3.20;;;1.63;;
7076;SDS011;3579;48.956;9.154;2024-03-25T13:36:07;2.60;;;1.70;;
7076;SDS011;3579;48.956;9.154;2024-03-25T13:38:33;2.73;;;1.77;;
7076;SDS011;3579;48.956;9.154;2024-03-25T13:40:59;3.30;;;1.60;;
7076;SDS011;3579;48.956;9.154;2024-03-25T13:43:26;1.90;;;1.30;;
7076;SDS011;3579;48.956;9.154;2024-03-25T13:45:52;1.93;;;1.40;;
7076;SDS011;3579;48.956;9.154;2024-03-25T13:48:18;2.37;;;1.60;;
7076;SDS011;3579;48.956;9.154;2024-03-25T13:50:45;4.00;;;1.57;;
7076;SDS011;3579;48.956;9.154;2024-03-25T13:53:11;3.07;;;1.67;;
7076;SDS011;3579;48.956;9.154;2024-03-25T13:55:37;1.87;;;1.63;;
7076;SDS011;3579;48.956;9.154;2024-03-25T13:58:03;2.70;;;1.57;;
7076;SDS011;3579;48.956;9.154;2024-03-25T14:00:30;1.70;;;1.40;;
7076;SDS011;3579;48.956;9.154;2024-03-25T14:02:59;3.47;;;1.47;;
7076;SDS011;3579;48.956;9.154;2024-03-25T14:05:25;4.43;;;1.70;;
7076;SDS011;3579;48.956;9.154;2024-03-25T14:07:51;2.93;;;1.50;;
7076;SDS011;3579;48.956;9.154;2024-03-25T14:10:18;2.97;;;1.50;;
7076;SDS011;3579;48.956;9.154;2024-03-25T14:12:44;3.03;;;1.67;;
7076;SDS011;3579;48.956;9.154;2024-03-25T14:15:10;3.13;;;1.50;;
7076;SDS011;3579;48.956;9.154;2024-03-25T14:17:36;3.53;;;1.90;;
7076;SDS011;3579;48.956;9.154;2024-03-25T14:20:02;2.90;;;1.40;;
7076;SDS011;3579;48.956;9.154;2024-03-25T14:22:32;5.57;;;1.60;;
7076;SDS011;3579;48.956;9.154;2024-03-25T14:24:58;2.00;;;1.40;;
7076;SDS011;3579;48.956;9.154;2024-03-25T14:27:25;4.70;;;1.60;;
7076;SDS011;3579;48.956;9.154;2024-03-25T14:29:51;3.70;;;1.47;;
7076;SDS011;3579;48.956;9.154;2024-03-25T14:32:21;1.63;;;1.20;;
7076;SDS011;3579;48.956;9.154;2024-03-25T14:34:48;4.27;;;1.50;;
7076;SDS011;3579;48.956;9.154;2024-03-25T14:37:15;5.27;;;1.57;;
7076;SDS011;3579;48.956;9.154;2024-03-25T14:39:41;3.27;;;1.60;;
7076;SDS011;3579;48.956;9.154;2024-03-25T14:42:08;3.13;;;1.30;;
7076;SDS011;3579;48.956;9.154;2024-03-25T14:44:40;2.67;;;1.50;;
7076;SDS011;3579;48.956;9.154;2024-03-25T14:47:06;2.97;;;1.53;;
7076;SDS011;3579;48.956;9.154;2024-03-25T14:49:32;4.53;;;1.40;;
7076;SDS011;3579;48.956;9.154;2024-03-25T14:51:58;2.67;;;1.67;;
7076;SDS011;3579;48.956;9.154;2024-03-25T14:54:32;2.80;;;1.42;;
7076;SDS011;3579;48.956;9.154;2024-03-25T14:57:00;3.40;;;1.33;;
7076;SDS011;3579;48.956;9.154;2024-03-25T14:59:27;4.03;;;1.40;;
7076;SDS011;3579;48.956;9.154;2024-03-25T15:01:54;4.70;;;1.37;;
7076;SDS011;3579;48.956;9.154;2024-03-25T15:04:23;2.20;;;1.40;;
7076;SDS011;3579;48.956;9.154;2024-03-25T15:06:49;2.37;;;1.50;;
7076;SDS011;3579;48.956;9.154;2024-03-25T15:09:15;4.87;;;1.40;;
7076;SDS011;3579;48.956;9.154;2024-03-25T15:11:41;5.23;;;1.60;;
7076;SDS011;3579;48.956;9.154;2024-03-25T15:14:07;1.50;;;1.30;;
7076;SDS011;3579;48.956;9.154;2024-03-25T15:16:33;3.17;;;1.60;;
7076;SDS011;3579;48.956;9.154;2024-03-25T15:18:59;3.13;;;1.30;;